This is the latest recevied weather packets stored in our database for station/object ED4YAF-13. If no packets are shown the sender has not sent any weather packets the latest 10 day(s).
| Time | Temp. | Humidity | Pressure | Rain* | Wind** | Luminosity | Snow |
|---|---|---|---|---|---|---|---|
| 1788025476 | 20.56° C | 28% | 1013.9 hPa | - | - | - | - |
| 1788024580 | 21.67° C | 27% | 1013.1 hPa | - | - | - | - |
| 1788023671 | 21.67° C | 27% | 1013.2 hPa | - | - | - | - |
| 1788023001 | 21.67° C | 27% | 1013 hPa | - | - | - | - |
| 1788022765 | 21.67° C | 27% | 1013 hPa | - | - | - | - |
| 1788021865 | 22.22° C | 27% | 1012.7 hPa | - | - | - | - |
| 1788020933 | 22.22° C | 27% | 1012.8 hPa | - | - | - | - |
| 1788020416 | 22.78° C | 26% | 1012.5 hPa | - | - | - | - |
| 1788020033 | 22.78° C | 26% | 1012.5 hPa | - | - | - | - |
| 1788019128 | 22.78° C | 26% | 1012.8 hPa | - | - | - | - |
| 1788018221 | 22.78° C | 25% | 1012.4 hPa | - | - | - | - |
| 1788017321 | 23.33° C | 25% | 1012.5 hPa | - | - | - | - |
| 1788016421 | 23.33° C | 24% | 1012.4 hPa | - | - | - | - |
| 1788015517 | 23.33° C | 25% | 1012.4 hPa | - | - | - | - |
| 1788014609 | 22.78° C | 24% | 1013.3 hPa | - | - | - | - |
| 1788013709 | 23.33° C | 24% | 1012.9 hPa | - | - | - | - |
| 1788012809 | 22.78° C | 25% | 1013.5 hPa | - | - | - | - |
| 1788011916 | 22.78° C | 25% | 1013.6 hPa | - | - | - | - |
| 1788011009 | 23.89° C | 24% | 1012.5 hPa | - | - | - | - |
| 1788010091 | 23.33° C | 23% | 1013.1 hPa | - | - | - | - |
| 1788009241 | 22.78° C | 24% | 1013.6 hPa | - | - | - | - |
| 1788009186 | 22.78° C | 24% | 1013.6 hPa | - | - | - | - |
| 1788008285 | 22.22° C | 25% | 1014 hPa | - | - | - | - |
| 1788007393 | 22.22° C | 26% | 1013.9 hPa | - | - | - | - |
| 1788006559 | 21.67° C | 27% | 1014.4 hPa | - | - | - | - |
* Rain since midnight (hover to see other rain measurements)
** Current wind speed in m/s (hover to see current wind gust speed)